ベルファスト/国際 の空港の天気 - METARとTAF

ベルファスト国際空港 ( EGAA / BFS ) - イギリス ベルファスト
飛行場実況気象(Metar)
観測時間10/24 04:20 BST (10/24 03:20 UTC)
風向・風速南南西 6m/s
視程10km以上
天気現象
少しの雲 雲底高度 210m
全天の4割程度の雲 雲底高度 610m
気温12℃
湿度94%
気圧1006hPa
METAREGAA 240320Z AUTO 20012KT 160V220 9999 FEW007 SCT020 12/11 Q1006
過去の天気等 Google飛行場航空写真 Wunderground天気予報

過去48時間のMETAR

飛行場予報(TAF)
発表時間: 10/24 02:20 BST (10/24 01:20 UTC)
予報対象時間: 24日2時 BST ~ 25日1時 BST
風向・風速南 6m/s
視程10km以上
全天の4割程度の雲 雲底高度 760m
24日2時 BST ~ 24日4時 BST に一時的に
風向・風速南 9m/s 瞬間風速 14m/s
視程3000m
天気現象強い雨 雨霧雨
全天の8割程度の雲 雲底高度 240m
24日2時 BST ~ 24日4時 BST に 確率 30% で一時的に
全天の8割程度の雲 雲底高度 120m
24日4時 BST ~ 24日10時 BST に 確率 30% で一時的に
全天の8割程度の雲 雲底高度 240m
24日15時 BST ~ 24日22時 BST に 確率 40% で一時的に
視程5000m
天気現象強いしゅう雨
TAF AMD EGAA 240120Z 2401/2424 19012KT 9999 SCT025
TEMPO 2401/2403 19018G28KT 3000 +RA RADZ BKN008
PROB30 TEMPO 2401/2403 BKN004
PROB30 TEMPO 2403/2409 BKN008
PROB40 TEMPO 2414/2421 5000 +SHRA